createdAt,value
2018-08-24T00:01:20.452Z,77.80
2018-08-24T00:03:50.208Z,78.10
2018-08-24T00:06:20.009Z,78.80
2018-08-24T00:08:49.881Z,79.10
2018-08-24T00:11:19.773Z,79.40
2018-08-24T00:13:49.687Z,80.20
2018-08-24T00:16:25.532Z,80.70
2018-08-24T00:18:55.405Z,81.20
2018-08-24T00:21:25.215Z,81.30
2018-08-24T00:23:55.202Z,81.40
2018-08-24T00:26:24.962Z,81.40
2018-08-24T00:28:54.662Z,81.30
2018-08-24T00:31:24.535Z,81.00
2018-08-24T00:33:54.828Z,81.20
2018-08-24T00:36:26.439Z,81.20
2018-08-24T00:38:56.916Z,80.70
2018-08-24T00:41:26.966Z,80.80
2018-08-24T00:43:59.667Z,80.60
2018-08-24T00:46:29.317Z,80.30
2018-08-24T00:48:59.039Z,80.40
2018-08-24T00:51:29.665Z,80.90
2018-08-24T00:53:59.329Z,82.50
2018-08-24T00:56:28.945Z,84.00
2018-08-24T00:58:58.595Z,85.20
2018-08-24T01:01:28.904Z,84.70
2018-08-24T01:03:58.649Z,85.50
2018-08-24T01:06:28.260Z,86.70
2018-08-24T01:08:57.949Z,87.70
2018-08-24T01:11:32.854Z,88.10
2018-08-24T01:14:02.504Z,88.50
2018-08-24T01:16:37.419Z,88.90
2018-08-24T01:19:07.044Z,88.50
2018-08-24T01:21:36.652Z,89.10
2018-08-24T01:24:06.751Z,89.40
2018-08-24T01:26:36.642Z,89.60
2018-08-24T01:29:06.329Z,90.10
2018-08-24T01:31:36.012Z,90.10
2018-08-24T01:34:05.610Z,90.30
2018-08-24T01:36:35.295Z,90.40
2018-08-24T01:39:05.885Z,90.10
2018-08-24T01:41:35.544Z,89.60
2018-08-24T01:44:05.324Z,88.90
2018-08-24T01:46:35.008Z,89.30
2018-08-24T01:49:04.655Z,89.60
2018-08-24T01:51:34.369Z,90.00
2018-08-24T01:54:03.944Z,90.10
2018-08-24T01:56:33.580Z,90.30
2018-08-24T01:59:03.307Z,90.20
2018-08-24T02:01:33.313Z,90.20
2018-08-24T02:04:02.936Z,90.10
2018-08-24T02:06:32.513Z,90.50
2018-08-24T02:09:02.183Z,90.60
2018-08-24T02:11:33.291Z,90.70
2018-08-24T02:14:08.126Z,90.70
2018-08-24T02:16:38.595Z,90.80
2018-08-24T02:19:17.671Z,90.50
2018-08-24T02:21:52.707Z,90.60
2018-08-24T02:24:22.336Z,90.50
2018-08-24T02:26:51.925Z,90.60
2018-08-24T02:29:21.548Z,90.50
2018-08-24T02:31:51.839Z,90.60
2018-08-24T02:34:21.488Z,90.60
2018-08-24T02:36:51.794Z,90.70
2018-08-24T02:39:21.408Z,90.60
2018-08-24T02:41:51.061Z,90.60
2018-08-24T02:44:21.613Z,90.60
2018-08-24T02:46:51.210Z,90.70
2018-08-24T02:49:20.812Z,90.80
2018-08-24T02:51:50.766Z,90.90
2018-08-24T02:54:20.385Z,91.10
2018-08-24T02:56:50.669Z,91.10
2018-08-24T02:59:20.305Z,91.20
2018-08-24T03:01:53.228Z,91.50
2018-08-24T03:04:22.864Z,91.20
2018-08-24T03:06:52.453Z,91.00
2018-08-24T03:09:22.083Z,91.10
2018-08-24T03:11:52.285Z,91.20
2018-08-24T03:14:21.898Z,91.20
2018-08-24T03:16:57.047Z,91.20
2018-08-24T03:19:26.655Z,91.10
2018-08-24T03:21:56.588Z,91.10
2018-08-24T03:24:26.215Z,91.20
2018-08-24T03:26:55.865Z,91.00
2018-08-24T03:29:25.492Z,91.20
2018-08-24T03:31:55.120Z,91.20
2018-08-24T03:34:24.738Z,91.20
2018-08-24T03:36:54.338Z,91.10
2018-08-24T03:39:23.957Z,91.10
2018-08-24T03:41:54.559Z,91.10
2018-08-24T03:44:24.295Z,91.10
2018-08-24T03:46:53.993Z,91.10
2018-08-24T03:49:23.673Z,91.20
2018-08-24T03:51:53.259Z,91.10
2018-08-24T03:54:23.555Z,91.20
2018-08-24T03:56:56.247Z,91.30
2018-08-24T03:59:26.267Z,91.40
2018-08-24T04:01:56.709Z,91.50
2018-08-24T04:04:26.368Z,91.70
2018-08-24T04:06:56.023Z,91.90
2018-08-24T04:09:25.663Z,92.10
2018-08-24T04:11:55.296Z,92.30
2018-08-24T04:14:24.905Z,92.20
2018-08-24T04:16:59.631Z,92.10
2018-08-24T04:19:29.775Z,91.90
2018-08-24T04:21:59.578Z,91.80
2018-08-24T04:24:30.568Z,91.70
2018-08-24T04:27:00.161Z,91.50
2018-08-24T04:29:29.895Z,91.60
2018-08-24T04:32:01.720Z,91.40
2018-08-24T04:34:31.357Z,91.30
2018-08-24T04:37:00.974Z,91.10
2018-08-24T04:39:30.661Z,91.10
2018-08-24T04:42:00.270Z,91.10
2018-08-24T04:44:29.983Z,91.00
2018-08-24T04:46:59.598Z,91.00
2018-08-24T04:49:29.323Z,90.90
2018-08-24T04:51:58.960Z,90.90
2018-08-24T04:54:28.591Z,90.80
2018-08-24T04:56:58.234Z,90.60
2018-08-24T04:59:27.897Z,90.50
2018-08-24T05:01:57.512Z,90.30
2018-08-24T05:04:27.193Z,90.30
2018-08-24T05:06:56.809Z,90.20
2018-08-24T05:09:26.512Z,90.10
2018-08-24T05:11:56.297Z,89.80
2018-08-24T05:14:26.250Z,89.90
2018-08-24T05:16:56.133Z,90.00
2018-08-24T05:19:26.114Z,89.80
2018-08-24T05:21:55.825Z,89.50
2018-08-24T05:24:25.640Z,89.50
2018-08-24T05:26:55.428Z,90.00
2018-08-24T05:29:28.996Z,90.10
2018-08-24T05:31:59.237Z,90.20
2018-08-24T05:34:29.106Z,90.00
2018-08-24T05:36:59.109Z,89.00
2018-08-24T05:39:28.871Z,88.90
2018-08-24T05:41:58.664Z,87.90
2018-08-24T05:44:28.493Z,87.60
2018-08-24T05:46:58.511Z,87.60
2018-08-24T05:49:28.106Z,87.10
2018-08-24T05:51:58.230Z,86.60
2018-08-24T05:54:27.803Z,88.30
2018-08-24T05:56:57.462Z,88.70
2018-08-24T05:59:27.161Z,88.20
2018-08-24T06:01:56.724Z,88.90
2018-08-24T06:04:26.632Z,88.60
2018-08-24T06:06:56.865Z,87.30
2018-08-24T06:09:26.679Z,87.50
2018-08-24T06:11:56.547Z,87.00
2018-08-24T06:14:26.206Z,86.20
2018-08-24T06:17:00.990Z,86.40
2018-08-24T06:19:30.729Z,85.70
2018-08-24T06:22:00.351Z,84.20
2018-08-24T06:24:29.948Z,80.00
2018-08-24T06:26:59.619Z,79.20
2018-08-24T06:29:29.293Z,76.70
2018-08-24T06:31:58.955Z,76.60
2018-08-24T06:34:28.609Z,73.90
2018-08-24T06:36:58.257Z,73.90
2018-08-24T06:39:27.882Z,72.40
2018-08-24T06:41:58.293Z,71.60
2018-08-24T06:44:27.896Z,73.10
2018-08-24T06:46:57.646Z,70.70
2018-08-24T06:49:27.289Z,71.40
2018-08-24T06:51:57.649Z,72.20
2018-08-24T06:54:27.287Z,70.40
2018-08-24T06:56:57.933Z,71.10
2018-08-24T06:59:27.694Z,70.50
2018-08-24T07:01:59.296Z,71.10
2018-08-24T07:04:28.997Z,70.30
2018-08-24T07:06:58.696Z,70.10
2018-08-24T07:09:28.449Z,72.30
2018-08-24T07:11:58.666Z,71.30
2018-08-24T07:14:28.437Z,70.20
2018-08-24T07:17:00.633Z,71.10
2018-08-24T07:19:31.168Z,72.00
2018-08-24T07:22:01.017Z,70.70
2018-08-24T07:24:30.662Z,69.60
2018-08-24T07:27:00.913Z,70.10
2018-08-24T07:29:30.650Z,69.30
2018-08-24T07:32:00.394Z,70.10
2018-08-24T07:34:30.061Z,70.40
2018-08-24T07:36:59.853Z,69.60
2018-08-24T07:39:29.516Z,69.70
2018-08-24T07:42:00.445Z,69.10
2018-08-24T07:44:30.085Z,69.10
2018-08-24T07:47:00.249Z,69.30
2018-08-24T07:49:29.858Z,69.40
2018-08-24T07:52:00.206Z,70.00
2018-08-24T07:54:29.914Z,69.10
2018-08-24T07:57:00.453Z,69.60
2018-08-24T07:59:30.111Z,70.20
2018-08-24T08:02:00.548Z,69.60
2018-08-24T08:04:30.205Z,68.90
2018-08-24T08:07:00.848Z,69.10
2018-08-24T08:09:30.476Z,68.50
2018-08-24T08:12:01.068Z,68.70
2018-08-24T08:14:31.165Z,70.10
2018-08-24T08:17:02.628Z,68.90
2018-08-24T08:19:32.728Z,69.00
2018-08-24T08:22:02.424Z,69.60
2018-08-24T08:24:32.046Z,69.50
2018-08-24T08:27:02.520Z,69.30
2018-08-24T08:29:37.192Z,69.10
2018-08-24T08:32:06.866Z,69.40
2018-08-24T08:34:40.570Z,72.20
2018-08-24T08:37:10.211Z,74.00
2018-08-24T08:39:41.064Z,78.30
2018-08-24T08:42:10.779Z,79.90
2018-08-24T08:44:40.446Z,83.10
2018-08-24T08:47:10.132Z,83.30
2018-08-24T08:49:39.851Z,84.60
2018-08-24T08:52:09.799Z,86.30
2018-08-24T08:54:40.638Z,87.90
2018-08-24T08:57:10.329Z,87.50
2018-08-24T08:59:40.122Z,88.30
2018-08-24T09:02:10.849Z,88.60
2018-08-24T09:04:42.020Z,87.90
2018-08-24T09:07:12.094Z,88.70
2018-08-24T09:09:42.486Z,87.70
2018-08-24T09:12:12.228Z,87.40
2018-08-24T09:14:42.067Z,87.70
2018-08-24T09:17:16.947Z,89.30
2018-08-24T09:19:51.616Z,89.40
2018-08-24T09:22:26.333Z,88.10
2018-08-24T09:25:01.496Z,88.70
2018-08-24T09:27:37.431Z,86.50
2018-08-24T09:30:13.590Z,86.30
2018-08-24T09:32:43.883Z,85.60
2018-08-24T09:35:13.471Z,82.80
2018-08-24T09:37:43.141Z,82.80
2018-08-24T09:40:12.773Z,79.60
2018-08-24T09:42:43.235Z,81.00
2018-08-24T09:45:12.916Z,83.40
2018-08-24T09:47:48.128Z,82.40
2018-08-24T09:50:22.986Z,82.70
2018-08-24T09:52:57.794Z,81.90
2018-08-24T09:55:31.486Z,82.60
2018-08-24T09:58:01.110Z,83.90
2018-08-24T10:00:34.873Z,84.50
2018-08-24T10:03:09.704Z,83.10
2018-08-24T10:05:44.945Z,83.30
2018-08-24T10:08:19.807Z,83.50
2018-08-24T10:10:49.485Z,84.60
2018-08-24T10:13:19.276Z,83.90
2018-08-24T10:15:48.929Z,83.80
2018-08-24T10:18:18.576Z,84.60
2018-08-24T10:20:49.004Z,82.50
2018-08-24T10:23:18.688Z,82.00
2018-08-24T10:25:48.403Z,82.10
2018-08-24T10:28:18.571Z,81.40
2018-08-24T10:30:48.331Z,82.40
2018-08-24T10:33:18.007Z,81.40
2018-08-24T10:35:48.624Z,80.20
2018-08-24T10:38:18.311Z,81.70
2018-08-24T10:40:48.047Z,81.00
2018-08-24T10:43:17.845Z,81.30
2018-08-24T10:45:47.548Z,79.80
2018-08-24T10:48:17.175Z,80.50
2018-08-24T10:50:47.663Z,79.30
2018-08-24T10:53:17.358Z,79.40
2018-08-24T10:55:47.203Z,79.40
2018-08-24T10:58:16.793Z,78.70
2018-08-24T11:00:46.432Z,78.50
2018-08-24T11:03:16.152Z,77.40
2018-08-24T11:05:47.003Z,76.30
2018-08-24T11:08:17.240Z,75.10
2018-08-24T11:10:46.924Z,74.50
2018-08-24T11:13:16.629Z,73.10
2018-08-24T11:15:49.262Z,70.10
2018-08-24T11:18:19.176Z,69.10
2018-08-24T11:20:55.649Z,68.50
2018-08-24T11:23:25.344Z,68.40
2018-08-24T11:25:55.204Z,69.40
2018-08-24T11:28:24.813Z,67.70
2018-08-24T11:30:54.467Z,67.50
2018-08-24T11:33:24.190Z,65.50
2018-08-24T11:35:54.007Z,65.20
2018-08-24T11:38:23.698Z,63.40
2018-08-24T11:40:53.381Z,63.70
2018-08-24T11:43:23.192Z,64.10
2018-08-24T11:45:52.880Z,63.10
2018-08-24T11:48:22.528Z,60.90
2018-08-24T11:50:52.191Z,62.60
2018-08-24T11:53:21.869Z,63.10
2018-08-24T11:55:51.488Z,62.20
2018-08-24T11:58:22.164Z,61.50
2018-08-24T12:00:51.877Z,61.40
2018-08-24T12:03:22.262Z,61.20
2018-08-24T12:05:52.017Z,59.10
2018-08-24T12:08:21.697Z,59.60
2018-08-24T12:10:51.281Z,59.20
2018-08-24T12:13:20.923Z,58.70
2018-08-24T12:15:50.519Z,58.90
2018-08-24T12:18:20.178Z,60.00
2018-08-24T12:20:50.370Z,61.60
2018-08-24T12:23:19.978Z,61.70
2018-08-24T12:25:49.613Z,60.90
2018-08-24T12:28:19.226Z,61.70
2018-08-24T12:30:48.910Z,61.10
2018-08-24T12:33:18.506Z,61.80
2018-08-24T12:35:48.782Z,71.20
2018-08-24T12:38:18.421Z,76.30
2018-08-24T12:40:48.036Z,79.60
2018-08-24T12:43:17.701Z,82.60
2018-08-24T12:45:52.236Z,85.30
2018-08-24T12:48:21.907Z,88.60
2018-08-24T12:50:51.682Z,90.40
2018-08-24T12:53:21.247Z,90.90
2018-08-24T12:55:51.138Z,90.50
2018-08-24T12:58:20.778Z,91.10
2018-08-24T13:00:50.391Z,91.20
2018-08-24T13:03:20.068Z,90.10
2018-08-24T13:05:50.418Z,89.30
2018-08-24T13:08:20.016Z,88.00
2018-08-24T13:10:49.633Z,87.70
2018-08-24T13:13:19.271Z,87.20
2018-08-24T13:15:48.933Z,86.20
2018-08-24T13:18:18.616Z,85.00
2018-08-24T13:20:49.072Z,82.30
2018-08-24T13:23:18.699Z,76.50
2018-08-24T13:25:48.326Z,78.40
2018-08-24T13:28:18.176Z,76.90
2018-08-24T13:30:48.255Z,74.80
2018-08-24T13:33:18.264Z,73.20
2018-08-24T13:35:49.064Z,70.70
2018-08-24T13:38:18.807Z,69.90
2018-08-24T13:40:48.588Z,68.90
2018-08-24T13:43:20.016Z,71.20
2018-08-24T13:45:49.719Z,71.50
2018-08-24T13:48:19.530Z,67.70
2018-08-24T13:50:49.509Z,69.00
2018-08-24T13:53:19.382Z,67.10
2018-08-24T13:55:49.157Z,61.70
2018-08-24T13:58:19.599Z,61.20
2018-08-24T14:00:49.296Z,60.60
2018-08-24T14:03:19.360Z,59.20
2018-08-24T14:05:49.599Z,59.40
2018-08-24T14:08:19.806Z,59.30
2018-08-24T14:10:49.485Z,61.20
2018-08-24T14:13:19.814Z,58.30
2018-08-24T14:15:49.523Z,58.80
2018-08-24T14:18:19.967Z,57.80
2018-08-24T14:20:50.029Z,57.50
2018-08-24T14:23:20.326Z,57.80
2018-08-24T14:25:49.972Z,58.70
2018-08-24T14:28:20.341Z,60.40
2018-08-24T14:30:50.107Z,59.80
2018-08-24T14:33:20.592Z,60.10
2018-08-24T14:35:51.011Z,59.40
2018-08-24T14:38:21.452Z,58.70
2018-08-24T14:40:51.065Z,59.30
2018-08-24T14:43:21.367Z,60.00
2018-08-24T14:45:50.988Z,56.20
2018-08-24T14:48:21.756Z,54.70
2018-08-24T14:50:52.015Z,54.40
2018-08-24T14:53:22.549Z,54.70
2018-08-24T14:55:52.201Z,55.20
2018-08-24T14:58:23.182Z,56.00
2018-08-24T15:00:52.803Z,52.80
2018-08-24T15:03:23.155Z,51.30
2018-08-24T15:05:52.906Z,51.70
2018-08-24T15:08:23.209Z,53.10
2018-08-24T15:10:52.851Z,50.70
2018-08-24T15:13:23.424Z,50.80
2018-08-24T15:15:53.061Z,50.30
2018-08-24T15:18:23.729Z,50.20
2018-08-24T15:20:53.443Z,48.60
2018-08-24T15:23:23.663Z,49.40
2018-08-24T15:25:53.337Z,48.80
2018-08-24T15:28:23.956Z,50.30
2018-08-24T15:30:53.609Z,49.20
2018-08-24T15:33:24.085Z,50.20
2018-08-24T15:35:53.769Z,48.20
2018-08-24T15:38:24.556Z,49.30
2018-08-24T15:40:54.178Z,50.10
2018-08-24T15:43:24.520Z,48.40
2018-08-24T15:45:54.178Z,49.40
2018-08-24T15:48:24.607Z,48.90
2018-08-24T15:50:54.219Z,49.40
2018-08-24T15:53:24.563Z,48.40
2018-08-24T15:55:54.171Z,47.20
2018-08-24T15:58:27.624Z,47.40
2018-08-24T16:00:57.333Z,48.40
2018-08-24T16:03:27.559Z,49.00
2018-08-24T16:05:57.226Z,49.50
2018-08-24T16:08:27.057Z,49.40
2018-08-24T16:10:56.837Z,49.40
2018-08-24T16:13:26.888Z,50.20
2018-08-24T16:15:56.663Z,50.70
2018-08-24T16:18:27.330Z,50.70
2018-08-24T16:20:56.989Z,50.90
2018-08-24T16:23:27.306Z,51.30
2018-08-24T16:25:56.921Z,52.10
2018-08-24T16:28:27.526Z,53.10
2018-08-24T16:30:57.165Z,53.20
2018-08-24T16:33:27.799Z,51.80
2018-08-24T16:35:57.489Z,51.90
2018-08-24T16:38:27.877Z,52.70
2018-08-24T16:40:57.592Z,54.20
2018-08-24T16:43:28.190Z,53.20
2018-08-24T16:45:57.858Z,52.40
2018-08-24T16:48:28.485Z,53.30
2018-08-24T16:50:59.236Z,53.90
2018-08-24T16:53:29.020Z,54.80
2018-08-24T16:55:58.626Z,54.30
2018-08-24T16:58:29.175Z,54.40
2018-08-24T17:00:58.817Z,54.50
2018-08-24T17:03:29.279Z,55.30
2018-08-24T17:05:58.968Z,55.10
2018-08-24T17:08:29.426Z,55.70
2018-08-24T17:10:59.037Z,55.80
2018-08-24T17:13:29.234Z,55.60
2018-08-24T17:15:58.937Z,55.90
2018-08-24T17:18:29.384Z,56.00
2018-08-24T17:20:59.025Z,56.40
2018-08-24T17:23:29.207Z,56.00
2018-08-24T17:25:58.844Z,56.60
2018-08-24T17:28:29.170Z,56.70
2018-08-24T17:30:59.292Z,56.70
2018-08-24T17:33:29.585Z,57.20
2018-08-24T17:35:59.245Z,57.90
2018-08-24T17:38:29.880Z,58.40
2018-08-24T17:40:59.553Z,59.40
2018-08-24T17:43:29.888Z,58.50
2018-08-24T17:45:59.509Z,59.80
2018-08-24T17:48:29.875Z,59.70
2018-08-24T17:50:59.565Z,60.90
2018-08-24T17:53:29.776Z,61.00
2018-08-24T17:55:59.487Z,60.50
2018-08-24T17:58:29.933Z,60.80
2018-08-24T18:00:59.687Z,61.70
2018-08-24T18:03:30.320Z,61.50
2018-08-24T18:05:59.980Z,61.30
2018-08-24T18:08:30.687Z,61.40
2018-08-24T18:11:00.405Z,62.40
2018-08-24T18:13:30.834Z,63.00
2018-08-24T18:16:00.847Z,63.20
2018-08-24T18:18:30.925Z,63.20
2018-08-24T18:21:00.562Z,63.10
2018-08-24T18:23:30.694Z,63.40
2018-08-24T18:26:00.303Z,64.00
2018-08-24T18:28:30.432Z,64.50
2018-08-24T18:31:00.055Z,64.70
2018-08-24T18:33:30.005Z,65.10
2018-08-24T18:35:59.643Z,65.40
2018-08-24T18:38:29.282Z,65.00
2018-08-24T18:40:59.019Z,65.50
2018-08-24T18:43:28.624Z,66.10
2018-08-24T18:45:58.267Z,66.10
2018-08-24T18:48:27.924Z,65.30
2018-08-24T18:50:58.120Z,65.60
2018-08-24T18:53:27.723Z,65.90
2018-08-24T18:55:57.345Z,66.30
2018-08-24T18:58:27.074Z,66.20
2018-08-24T19:00:56.742Z,66.20
2018-08-24T19:03:26.353Z,66.20
2018-08-24T19:05:56.443Z,66.60
2018-08-24T19:08:26.055Z,66.70
2018-08-24T19:11:01.009Z,67.00
2018-08-24T19:13:30.624Z,66.60
2018-08-24T19:16:00.248Z,66.70
2018-08-24T19:18:34.986Z,66.50
2018-08-24T19:21:09.729Z,66.10
2018-08-24T19:23:39.969Z,66.00
2018-08-24T19:26:10.204Z,66.10
2018-08-24T19:28:45.694Z,65.90
2018-08-24T19:31:15.422Z,66.30
2018-08-24T19:33:45.416Z,66.40
2018-08-24T19:36:15.092Z,66.50
2018-08-24T19:38:44.788Z,66.10
2018-08-24T19:41:19.450Z,66.60
2018-08-24T19:43:49.344Z,66.40
2018-08-24T19:46:18.936Z,67.20
2018-08-24T19:48:54.083Z,66.70
2018-08-24T19:51:24.988Z,66.70
2018-08-24T19:54:01.125Z,66.70
2018-08-24T19:56:43.011Z,66.70
2018-08-24T19:59:21.115Z,66.70
2018-08-24T20:02:02.121Z,66.60
2018-08-24T20:04:42.731Z,66.50
2018-08-24T20:07:25.131Z,66.10
2018-08-24T20:10:08.406Z,66.60
2018-08-24T20:12:39.156Z,66.20
2018-08-24T20:15:13.971Z,66.20
2018-08-24T20:17:44.247Z,65.70
2018-08-24T20:20:13.882Z,65.80
2018-08-24T20:22:44.054Z,65.50
2018-08-24T20:25:13.638Z,64.80
2018-08-24T20:27:44.264Z,63.80
2018-08-24T20:30:16.422Z,63.40
2018-08-24T20:32:46.253Z,63.60
2018-08-24T20:35:15.951Z,64.00
2018-08-24T20:37:45.826Z,62.50
2018-08-24T20:40:15.532Z,62.50
2018-08-24T20:42:45.772Z,62.40
2018-08-24T20:45:15.367Z,62.20
2018-08-24T20:47:45.890Z,62.00
2018-08-24T20:50:17.485Z,62.00
2018-08-24T20:52:47.108Z,62.20
2018-08-24T20:55:16.792Z,62.10
2018-08-24T20:57:46.810Z,62.00
2018-08-24T21:00:16.494Z,62.00
2018-08-24T21:02:48.243Z,61.40
2018-08-24T21:05:17.925Z,60.70
2018-08-24T21:07:47.625Z,61.20
2018-08-24T21:10:17.286Z,61.20
2018-08-24T21:12:46.972Z,61.20
2018-08-24T21:15:16.646Z,60.90
2018-08-24T21:17:47.408Z,60.90
2018-08-24T21:20:16.995Z,60.30
2018-08-24T21:22:47.343Z,60.60
2018-08-24T21:25:17.048Z,60.80
2018-08-24T21:27:47.567Z,60.60
2018-08-24T21:30:17.336Z,60.80
2018-08-24T21:32:48.037Z,60.70
2018-08-24T21:35:17.592Z,60.70
2018-08-24T21:37:48.225Z,60.60
2018-08-24T21:40:17.870Z,60.80
2018-08-24T21:42:48.404Z,61.20
2018-08-24T21:45:18.079Z,60.30
2018-08-24T21:47:49.404Z,60.60
2018-08-24T21:50:19.090Z,60.70
2018-08-24T21:52:48.973Z,60.70
2018-08-24T21:55:18.661Z,61.10
2018-08-24T21:57:49.113Z,61.00
2018-08-24T22:00:18.831Z,60.80
2018-08-24T22:02:50.486Z,61.00
2018-08-24T22:05:20.159Z,61.10
2018-08-24T22:07:50.213Z,61.10
2018-08-24T22:10:19.864Z,61.70
2018-08-24T22:12:49.673Z,61.50
2018-08-24T22:15:19.349Z,61.80
2018-08-24T22:17:50.764Z,62.00
2018-08-24T22:20:20.414Z,61.50
2018-08-24T22:22:50.565Z,61.70
2018-08-24T22:25:20.245Z,61.30
2018-08-24T22:27:50.476Z,61.50
2018-08-24T22:30:20.148Z,61.00
2018-08-24T22:32:51.212Z,61.10
2018-08-24T22:35:20.799Z,60.50
2018-08-24T22:37:51.553Z,59.70
2018-08-24T22:40:21.157Z,59.40
2018-08-24T22:42:51.233Z,59.00
2018-08-24T22:45:20.918Z,58.90
2018-08-24T22:47:52.980Z,58.30
2018-08-24T22:50:22.814Z,58.90
2018-08-24T22:52:52.413Z,58.50
2018-08-24T22:55:22.024Z,59.00
2018-08-24T22:57:52.080Z,58.90
2018-08-24T23:00:21.651Z,60.20
2018-08-24T23:02:52.393Z,61.80
2018-08-24T23:05:22.022Z,63.40
2018-08-24T23:07:52.267Z,64.70
2018-08-24T23:10:21.879Z,65.00
2018-08-24T23:12:51.869Z,68.20
2018-08-24T23:15:21.479Z,67.80
2018-08-24T23:17:52.970Z,68.10
2018-08-24T23:20:22.658Z,70.20
2018-08-24T23:22:52.757Z,71.00
2018-08-24T23:25:23.126Z,71.70
2018-08-24T23:27:53.670Z,72.80
2018-08-24T23:30:23.370Z,72.60
2018-08-24T23:32:53.717Z,72.00
2018-08-24T23:35:23.320Z,73.80
2018-08-24T23:37:53.469Z,73.40
2018-08-24T23:40:23.077Z,73.30
2018-08-24T23:42:53.580Z,74.10
2018-08-24T23:45:23.216Z,75.60
2018-08-24T23:47:53.468Z,75.60
2018-08-24T23:50:23.134Z,76.00
2018-08-24T23:52:53.342Z,75.90
2018-08-24T23:55:23.011Z,73.90
2018-08-24T23:57:52.955Z,73.70
